Time;durP1;ratioP1;P1;durP2;ratioP2;P2;SDS_P1;SDS_P2;PMS_P1;PMS_P2;Temp;Humidity;BMP_temperature;BMP_pressure;BME280_temperature;BME280_humidity;BME280_pressure;Samples;Min_cycle;Max_cycle;Signal;HPM_P1;HPM_P2
2022/01/11 00:01:28;;;;;;;1.92;1.60;;;;;;;;;;5025990;28;20208;-55
2022/01/11 00:03:54;;;;;;;1.60;1.50;;;;;;;;;;5023503;28;20308;-55
2022/01/11 00:06:30;;;;;;;2.08;1.80;;;;;;;;;;5037600;28;20258;-55
2022/01/11 00:09:01;;;;;;;2.03;1.80;;;;;;;;;;5037713;28;21761;-55
2022/01/11 00:11:27;;;;;;;1.95;1.80;;;;;;;;;;5040710;28;20179;-55
2022/01/11 00:13:53;;;;;;;1.63;1.52;;;;;;;;;;5036022;28;20184;-55
2022/01/11 00:16:19;;;;;;;1.88;1.60;;;;;;;;;;5040412;28;20187;-55
2022/01/11 00:18:45;;;;;;;1.80;1.52;;;;;;;;;;5032998;28;20454;-55
2022/01/11 00:21:11;;;;;;;2.30;1.67;;;;;;;;;;5041593;28;20197;-55
2022/01/11 00:26:04;;;;;;;3.53;1.50;;;;;;;;;;5033610;28;20617;-55
2022/01/11 00:28:30;;;;;;;1.73;1.60;;;;;;;;;;5043929;28;20566;-55
2022/01/11 00:30:57;;;;;;;2.53;1.63;;;;;;;;;;5024333;28;20179;-55
2022/01/11 00:33:35;;;;;;;2.67;1.52;;;;;;;;;;5049085;28;20209;-55
2022/01/11 00:36:03;;;;;;;1.92;1.50;;;;;;;;;;5039117;28;20179;-55
2022/01/11 00:38:34;;;;;;;1.60;1.50;;;;;;;;;;5050418;28;20201;-55
2022/01/11 00:41:02;;;;;;;2.72;1.58;;;;;;;;;;5042089;28;20187;-55
2022/01/11 00:43:29;;;;;;;1.60;1.50;;;;;;;;;;5054514;28;20175;-55
2022/01/11 00:45:57;;;;;;;1.83;1.73;;;;;;;;;;5034849;28;20187;-55
2022/01/11 00:48:23;;;;;;;1.80;1.58;;;;;;;;;;5047932;28;20623;-56
2022/01/11 00:50:49;;;;;;;1.95;1.52;;;;;;;;;;5038008;28;20206;-55
2022/01/11 00:53:18;;;;;;;1.75;1.60;;;;;;;;;;5043432;28;20427;-55
2022/01/11 00:55:44;;;;;;;1.50;1.40;;;;;;;;;;5042251;28;20204;-55
2022/01/11 00:58:10;;;;;;;1.50;1.40;;;;;;;;;;5040360;28;20220;-55
2022/01/11 01:00:38;;;;;;;3.92;1.73;;;;;;;;;;5040065;28;20203;-55
2022/01/11 01:03:04;;;;;;;1.35;1.25;;;;;;;;;;5037902;28;20328;-55
2022/01/11 01:05:30;;;;;;;1.40;1.30;;;;;;;;;;5041115;28;20198;-55
2022/01/11 01:07:56;;;;;;;2.78;1.77;;;;;;;;;;5035765;28;20234;-55
2022/01/11 01:10:26;;;;;;;1.88;1.48;;;;;;;;;;5032649;28;20709;-55
2022/01/11 01:12:56;;;;;;;1.45;1.35;;;;;;;;;;5040316;28;20191;-55
2022/01/11 01:15:22;;;;;;;2.65;1.60;;;;;;;;;;5028439;28;20173;-55
2022/01/11 01:17:48;;;;;;;1.35;1.25;;;;;;;;;;5041093;28;20244;-55
2022/01/11 01:20:14;;;;;;;1.60;1.50;;;;;;;;;;5044166;28;20720;-55
2022/01/11 01:22:40;;;;;;;1.20;1.10;;;;;;;;;;5044381;28;20175;-55
2022/01/11 01:25:07;;;;;;;1.40;1.30;;;;;;;;;;5031670;28;20454;-55
2022/01/11 01:27:33;;;;;;;1.35;1.25;;;;;;;;;;5039378;28;20723;-55
2022/01/11 01:29:59;;;;;;;1.52;1.25;;;;;;;;;;5045115;28;20191;-55
2022/01/11 01:32:25;;;;;;;1.88;1.30;;;;;;;;;;5042047;28;20234;-55
2022/01/11 01:34:52;;;;;;;1.70;1.60;;;;;;;;;;5033341;28;20712;-55
2022/01/11 01:37:18;;;;;;;1.50;1.40;;;;;;;;;;5036474;28;20177;-55
2022/01/11 01:39:44;;;;;;;1.75;1.30;;;;;;;;;;5040748;28;20183;-55
2022/01/11 01:42:13;;;;;;;1.50;1.40;;;;;;;;;;5033067;28;20185;-55
2022/01/11 01:44:43;;;;;;;4.43;1.58;;;;;;;;;;5035808;28;20241;-55
2022/01/11 01:47:12;;;;;;;1.80;1.70;;;;;;;;;;5040731;28;20582;-55
2022/01/11 01:49:39;;;;;;;1.40;1.30;;;;;;;;;;5033427;28;20187;-55
2022/01/11 01:52:06;;;;;;;1.30;1.20;;;;;;;;;;5042526;28;20207;-55
2022/01/11 01:54:32;;;;;;;1.85;1.50;;;;;;;;;;5030334;28;20207;-55
2022/01/11 01:56:58;;;;;;;1.50;1.40;;;;;;;;;;5040033;28;20286;-55
2022/01/11 01:59:25;;;;;;;1.60;1.50;;;;;;;;;;5039388;28;20183;-55
2022/01/11 02:01:51;;;;;;;1.50;1.40;;;;;;;;;;5029178;28;20272;-55
2022/01/11 02:04:18;;;;;;;1.60;1.50;;;;;;;;;;5035899;28;20180;-56
2022/01/11 02:06:45;;;;;;;1.27;1.17;;;;;;;;;;5043063;28;20202;-55
2022/01/11 02:09:12;;;;;;;1.55;1.42;;;;;;;;;;5044231;28;20236;-55
2022/01/11 02:11:38;;;;;;;1.60;1.50;;;;;;;;;;5032054;28;20206;-55
2022/01/11 02:14:04;;;;;;;1.67;1.45;;;;;;;;;;5041681;28;20175;-55
2022/01/11 02:16:30;;;;;;;1.73;1.63;;;;;;;;;;5039175;28;20502;-55
2022/01/11 02:18:56;;;;;;;1.70;1.10;;;;;;;;;;5033887;28;20633;-55
2022/01/11 02:21:23;;;;;;;1.55;1.45;;;;;;;;;;5047862;28;20260;-56
2022/01/11 02:23:50;;;;;;;1.45;1.35;;;;;;;;;;5038420;28;20541;-55
2022/01/11 02:26:16;;;;;;;1.48;1.38;;;;;;;;;;5032860;28;20649;-55
2022/01/11 02:28:42;;;;;;;1.85;1.40;;;;;;;;;;5031891;28;20307;-55
2022/01/11 02:31:12;;;;;;;1.60;1.50;;;;;;;;;;5033446;28;20168;-55
2022/01/11 02:33:44;;;;;;;1.50;1.40;;;;;;;;;;5030545;28;20188;-55
2022/01/11 02:36:20;;;;;;;1.50;1.38;;;;;;;;;;5048423;28;20183;-55
2022/01/11 02:38:47;;;;;;;1.60;1.50;;;;;;;;;;5024854;28;20198;-55
2022/01/11 02:41:13;;;;;;;1.50;1.20;;;;;;;;;;5025511;28;20196;-55
2022/01/11 02:43:47;;;;;;;1.60;1.50;;;;;;;;;;5038027;28;20249;-55
2022/01/11 02:46:14;;;;;;;1.30;1.20;;;;;;;;;;5041405;28;20548;-55
2022/01/11 02:48:40;;;;;;;1.42;1.33;;;;;;;;;;5034894;28;20187;-55
2022/01/11 02:51:07;;;;;;;2.05;1.30;;;;;;;;;;5037134;28;20628;-55
2022/01/11 02:53:39;;;;;;;1.50;1.40;;;;;;;;;;5055926;28;20179;-55
2022/01/11 02:56:05;;;;;;;2.05;1.50;;;;;;;;;;5042364;28;20225;-55
2022/01/11 02:58:30;;;;;;;1.60;1.30;;;;;;;;;;5032650;28;20187;-55
2022/01/11 03:00:57;;;;;;;1.67;1.33;;;;;;;;;;5040746;28;20591;-55
2022/01/11 03:03:23;;;;;;;1.85;1.38;;;;;;;;;;5038025;28;20200;-55
2022/01/11 03:05:54;;;;;;;1.40;1.30;;;;;;;;;;5034896;28;20198;-55
2022/01/11 03:08:20;;;;;;;1.50;1.40;;;;;;;;;;5046445;28;20445;-55
2022/01/11 03:10:47;;;;;;;1.65;1.55;;;;;;;;;;5049598;28;20210;-55
2022/01/11 03:13:14;;;;;;;1.50;1.40;;;;;;;;;;5047292;28;20184;-55
2022/01/11 03:15:40;;;;;;;1.48;1.38;;;;;;;;;;5024247;28;20196;-56
2022/01/11 03:18:07;;;;;;;1.50;1.40;;;;;;;;;;5030158;28;20206;-55
2022/01/11 03:20:34;;;;;;;1.40;1.30;;;;;;;;;;5052568;28;20187;-55
2022/01/11 03:23:00;;;;;;;1.33;1.23;;;;;;;;;;5044518;28;20184;-55
2022/01/11 03:25:26;;;;;;;1.40;1.30;;;;;;;;;;5038454;28;20211;-56
2022/01/11 03:27:53;;;;;;;1.40;1.30;;;;;;;;;;5034683;28;20246;-55
2022/01/11 03:30:19;;;;;;;1.45;1.35;;;;;;;;;;5033454;28;20195;-55
2022/01/11 03:32:45;;;;;;;1.48;1.38;;;;;;;;;;5043542;28;20266;-55
2022/01/11 03:35:12;;;;;;;1.35;1.25;;;;;;;;;;5041416;28;20685;-55
2022/01/11 03:37:38;;;;;;;1.40;1.25;;;;;;;;;;5044131;28;20208;-55
2022/01/11 03:40:05;;;;;;;1.40;1.30;;;;;;;;;;5041447;28;20179;-55
2022/01/11 03:42:31;;;;;;;1.35;1.20;;;;;;;;;;5051605;28;20578;-56
2022/01/11 03:44:57;;;;;;;1.75;1.35;;;;;;;;;;5035033;28;20184;-55
2022/01/11 03:47:23;;;;;;;1.50;1.40;;;;;;;;;;5035239;28;20212;-55
2022/01/11 03:49:49;;;;;;;1.50;1.40;;;;;;;;;;5034196;28;20192;-55
2022/01/11 03:52:15;;;;;;;1.52;1.20;;;;;;;;;;5046904;28;20255;-55
2022/01/11 03:57:22;;;;;;;1.70;1.60;;;;;;;;;;5028167;28;20198;-55
2022/01/11 03:59:48;;;;;;;1.52;1.42;;;;;;;;;;5039742;28;20222;-55
2022/01/11 04:02:14;;;;;;;1.45;1.35;;;;;;;;;;5037838;28;20234;-55
2022/01/11 04:04:41;;;;;;;1.67;1.38;;;;;;;;;;5035922;28;20237;-55
2022/01/11 04:07:07;;;;;;;1.45;1.35;;;;;;;;;;5032292;28;20214;-55
2022/01/11 04:09:33;;;;;;;1.48;1.13;;;;;;;;;;5048238;28;20167;-55
2022/01/11 04:11:59;;;;;;;1.92;1.30;;;;;;;;;;5052810;28;20572;-55
2022/01/11 04:14:25;;;;;;;1.77;1.30;;;;;;;;;;5045220;28;20176;-55
2022/01/11 04:16:52;;;;;;;1.30;1.20;;;;;;;;;;5041088;28;20218;-56
2022/01/11 04:19:18;;;;;;;1.30;1.20;;;;;;;;;;5036872;28;20188;-55
2022/01/11 04:21:44;;;;;;;1.75;1.20;;;;;;;;;;5047774;28;20186;-55
2022/01/11 04:24:12;;;;;;;1.33;1.20;;;;;;;;;;5038632;28;20214;-55
2022/01/11 04:26:38;;;;;;;1.38;1.27;;;;;;;;;;5038048;28;20235;-55
2022/01/11 04:29:04;;;;;;;1.40;1.30;;;;;;;;;;5044050;28;20433;-55
2022/01/11 04:31:30;;;;;;;1.73;1.40;;;;;;;;;;5041185;28;20209;-55
2022/01/11 04:33:56;;;;;;;1.77;1.35;;;;;;;;;;5044108;28;20199;-55
2022/01/11 04:36:22;;;;;;;1.40;1.30;;;;;;;;;;5038336;28;20179;-55
2022/01/11 04:38:48;;;;;;;1.33;1.23;;;;;;;;;;5045583;28;20221;-55
2022/01/11 04:41:14;;;;;;;1.40;1.30;;;;;;;;;;5039078;28;20191;-55
2022/01/11 04:43:40;;;;;;;1.63;1.52;;;;;;;;;;5049012;28;20214;-55
2022/01/11 04:46:06;;;;;;;1.25;1.10;;;;;;;;;;5036750;28;20266;-55
2022/01/11 04:48:33;;;;;;;1.50;1.38;;;;;;;;;;5036692;28;20436;-55
2022/01/11 04:50:59;;;;;;;1.35;1.25;;;;;;;;;;5025185;28;20183;-55
2022/01/11 04:53:25;;;;;;;1.40;1.30;;;;;;;;;;5042928;28;20179;-55
2022/01/11 04:55:51;;;;;;;1.50;1.40;;;;;;;;;;5040019;28;20183;-55
2022/01/11 04:58:18;;;;;;;1.30;1.20;;;;;;;;;;5041689;28;20258;-55
2022/01/11 05:00:44;;;;;;;1.42;1.33;;;;;;;;;;5040249;28;20223;-55
2022/01/11 05:03:10;;;;;;;1.52;1.42;;;;;;;;;;5054259;28;20191;-55
2022/01/11 05:05:36;;;;;;;1.50;1.40;;;;;;;;;;5032722;28;20262;-55
2022/01/11 05:08:02;;;;;;;1.30;1.20;;;;;;;;;;5040726;28;20297;-55
2022/01/11 05:10:28;;;;;;;1.52;1.42;;;;;;;;;;5042983;28;20175;-55
2022/01/11 05:12:54;;;;;;;1.40;1.30;;;;;;;;;;5035262;28;20183;-55
2022/01/11 05:15:23;;;;;;;1.40;1.30;;;;;;;;;;5043315;28;20171;-55
2022/01/11 05:17:50;;;;;;;1.58;1.30;;;;;;;;;;5036671;28;20539;-55
2022/01/11 05:20:17;;;;;;;1.42;1.33;;;;;;;;;;5039239;28;20220;-54
2022/01/11 05:22:45;;;;;;;1.33;1.25;;;;;;;;;;5044305;28;20286;-56
2022/01/11 05:25:13;;;;;;;1.50;1.40;;;;;;;;;;5032021;28;20240;-55
2022/01/11 05:27:39;;;;;;;1.50;1.40;;;;;;;;;;5034624;28;20215;-55
2022/01/11 05:30:06;;;;;;;1.58;1.48;;;;;;;;;;5028433;28;20179;-55
2022/01/11 05:32:35;;;;;;;1.30;1.20;;;;;;;;;;5042593;28;20186;-55
2022/01/11 05:35:01;;;;;;;1.33;1.25;;;;;;;;;;5027915;28;20186;-55
2022/01/11 05:37:27;;;;;;;1.60;1.50;;;;;;;;;;5039538;28;20542;-55
2022/01/11 05:39:53;;;;;;;1.40;1.30;;;;;;;;;;5030194;28;20188;-55
2022/01/11 05:42:19;;;;;;;1.60;1.50;;;;;;;;;;5053469;28;20225;-55
2022/01/11 05:44:45;;;;;;;1.40;1.30;;;;;;;;;;5040247;28;20169;-55
2022/01/11 05:47:12;;;;;;;1.50;1.40;;;;;;;;;;5044092;28;20198;-55
2022/01/11 05:49:38;;;;;;;1.60;1.50;;;;;;;;;;5037251;28;20274;-55
2022/01/11 05:52:04;;;;;;;1.50;1.40;;;;;;;;;;5045050;28;20179;-55
2022/01/11 05:54:30;;;;;;;1.50;1.40;;;;;;;;;;5032484;28;20270;-54
2022/01/11 05:56:56;;;;;;;1.45;1.33;;;;;;;;;;5033199;28;20278;-55
2022/01/11 05:59:22;;;;;;;1.55;1.45;;;;;;;;;;5033050;28;20258;-54
2022/01/11 06:01:48;;;;;;;2.45;1.60;;;;;;;;;;5044419;28;20309;-54
2022/01/11 06:04:14;;;;;;;3.53;1.40;;;;;;;;;;5024052;28;20578;-54
2022/01/11 06:06:40;;;;;;;1.55;1.45;;;;;;;;;;5034809;28;20218;-54
2022/01/11 06:09:06;;;;;;;2.38;1.30;;;;;;;;;;5038520;28;20463;-54
2022/01/11 06:11:32;;;;;;;1.35;1.17;;;;;;;;;;5041741;28;20183;-54
2022/01/11 06:13:58;;;;;;;2.05;1.55;;;;;;;;;;5040765;28;20218;-54
2022/01/11 06:16:24;;;;;;;1.73;1.63;;;;;;;;;;5046292;28;20179;-54
2022/01/11 06:18:51;;;;;;;3.42;1.50;;;;;;;;;;5043004;28;20177;-54
2022/01/11 06:21:17;;;;;;;1.88;1.45;;;;;;;;;;5043480;28;20179;-55
2022/01/11 06:23:43;;;;;;;1.77;1.50;;;;;;;;;;5037047;28;20555;-55
2022/01/11 06:26:09;;;;;;;4.00;1.67;;;;;;;;;;5037796;28;20456;-55
2022/01/11 06:28:35;;;;;;;1.52;1.42;;;;;;;;;;5022115;28;20254;-55
2022/01/11 06:31:01;;;;;;;3.55;1.65;;;;;;;;;;5022681;28;20599;-55
2022/01/11 06:33:27;;;;;;;1.85;1.70;;;;;;;;;;5035445;28;20191;-55
2022/01/11 06:35:53;;;;;;;7.75;2.33;;;;;;;;;;5029788;28;20282;-55
2022/01/11 06:38:19;;;;;;;7.28;2.20;;;;;;;;;;5037596;28;20186;-55
2022/01/11 06:40:45;;;;;;;8.40;2.88;;;;;;;;;;5035753;28;20172;-55
2022/01/11 06:43:11;;;;;;;7.78;2.58;;;;;;;;;;5043106;28;20527;-55
2022/01/11 06:45:38;;;;;;;8.23;2.72;;;;;;;;;;5034583;28;20172;-55
2022/01/11 06:48:04;;;;;;;5.78;3.00;;;;;;;;;;5041576;28;20590;-55
2022/01/11 06:50:30;;;;;;;4.78;2.58;;;;;;;;;;5036001;28;20238;-55
2022/01/11 06:52:56;;;;;;;5.63;2.50;;;;;;;;;;5049155;28;20172;-54
2022/01/11 06:55:22;;;;;;;7.35;2.70;;;;;;;;;;5023006;28;20267;-54
2022/01/11 06:57:49;;;;;;;13.68;2.30;;;;;;;;;;5040668;28;20270;-54
2022/01/11 07:00:15;;;;;;;11.10;2.90;;;;;;;;;;5042244;28;20183;-54
2022/01/11 07:02:41;;;;;;;10.40;2.58;;;;;;;;;;5048443;28;20598;-55
2022/01/11 07:05:08;;;;;;;9.30;3.08;;;;;;;;;;5034591;28;20186;-55
2022/01/11 07:07:34;;;;;;;8.73;2.33;;;;;;;;;;5045415;28;20208;-55
2022/01/11 07:10:00;;;;;;;6.85;2.75;;;;;;;;;;5033822;28;20286;-55
2022/01/11 07:12:26;;;;;;;8.45;2.80;;;;;;;;;;5038454;28;20176;-55
2022/01/11 07:14:52;;;;;;;5.63;2.40;;;;;;;;;;5027580;28;20187;-55
2022/01/11 07:17:20;;;;;;;6.75;2.40;;;;;;;;;;5032713;28;20173;-55
2022/01/11 07:19:46;;;;;;;9.77;3.00;;;;;;;;;;5028555;28;20256;-55
2022/01/11 07:22:12;;;;;;;8.35;2.85;;;;;;;;;;5031370;28;20411;-55
2022/01/11 07:24:38;;;;;;;8.63;3.00;;;;;;;;;;5024741;28;20609;-54
2022/01/11 07:27:04;;;;;;;4.28;2.55;;;;;;;;;;5025253;28;20287;-55
2022/01/11 07:29:30;;;;;;;8.02;3.15;;;;;;;;;;5032095;28;20322;-55
2022/01/11 07:31:56;;;;;;;9.25;3.03;;;;;;;;;;5025839;28;20232;-55
2022/01/11 07:34:22;;;;;;;5.45;2.92;;;;;;;;;;5027909;28;20273;-55
2022/01/11 07:36:48;;;;;;;5.60;2.40;;;;;;;;;;5033272;28;20562;-55
2022/01/11 07:39:15;;;;;;;11.50;3.03;;;;;;;;;;5030621;28;20188;-55
2022/01/11 07:41:42;;;;;;;3.65;2.00;;;;;;;;;;5035628;28;20529;-55
2022/01/11 07:44:08;;;;;;;4.85;2.75;;;;;;;;;;5033256;28;20176;-55
2022/01/11 07:46:35;;;;;;;4.65;2.42;;;;;;;;;;5041115;28;20253;-55
2022/01/11 07:49:02;;;;;;;4.95;2.38;;;;;;;;;;5037103;28;20179;-55
2022/01/11 07:51:29;;;;;;;6.95;2.60;;;;;;;;;;5042600;28;20182;-55
2022/01/11 07:53:55;;;;;;;6.68;2.75;;;;;;;;;;5038495;28;20458;-55
2022/01/11 07:56:21;;;;;;;8.27;2.60;;;;;;;;;;5035837;28;20189;-55
2022/01/11 07:58:47;;;;;;;5.07;2.92;;;;;;;;;;5036710;28;20180;-55
2022/01/11 08:01:13;;;;;;;7.05;2.72;;;;;;;;;;5029922;28;20204;-55
2022/01/11 08:03:39;;;;;;;3.58;2.28;;;;;;;;;;5039630;28;20195;-55
2022/01/11 08:06:06;;;;;;;5.80;2.53;;;;;;;;;;5037113;28;20192;-55
2022/01/11 08:08:32;;;;;;;4.60;2.78;;;;;;;;;;5038409;28;20187;-55
2022/01/11 08:10:59;;;;;;;4.05;2.35;;;;;;;;;;5030865;28;20179;-55
2022/01/11 08:13:25;;;;;;;4.80;2.40;;;;;;;;;;5033145;28;20179;-55
2022/01/11 08:15:52;;;;;;;5.15;2.25;;;;;;;;;;5031731;28;20183;-55
2022/01/11 08:18:18;;;;;;;6.60;2.45;;;;;;;;;;5027381;28;20472;-55
2022/01/11 08:20:44;;;;;;;3.85;2.60;;;;;;;;;;5031644;28;20511;-54
2022/01/11 08:23:11;;;;;;;4.53;2.28;;;;;;;;;;5035279;28;20187;-55
2022/01/11 08:25:37;;;;;;;4.45;2.10;;;;;;;;;;5031509;28;20180;-55
2022/01/11 08:28:04;;;;;;;4.28;2.60;;;;;;;;;;5028788;28;20212;-55
2022/01/11 08:30:31;;;;;;;3.83;2.10;;;;;;;;;;5031556;28;20286;-55
2022/01/11 08:32:57;;;;;;;4.78;2.25;;;;;;;;;;5032419;28;20180;-55
2022/01/11 08:35:24;;;;;;;3.65;2.33;;;;;;;;;;5030363;28;20195;-55
2022/01/11 08:37:50;;;;;;;3.83;1.83;;;;;;;;;;5034712;28;20176;-55
2022/01/11 08:40:16;;;;;;;4.68;2.03;;;;;;;;;;5032146;28;20180;-56
2022/01/11 08:42:42;;;;;;;4.40;2.15;;;;;;;;;;5034559;28;20228;-55
2022/01/11 08:45:09;;;;;;;7.25;2.65;;;;;;;;;;5031688;28;20178;-55
2022/01/11 08:47:35;;;;;;;10.43;2.88;;;;;;;;;;5029947;28;20266;-55
2022/01/11 08:50:02;;;;;;;5.93;2.83;;;;;;;;;;5025317;28;20172;-55
2022/01/11 08:52:29;;;;;;;5.82;2.65;;;;;;;;;;5032090;28;20449;-55
2022/01/11 08:54:55;;;;;;;9.52;2.90;;;;;;;;;;5032915;28;20183;-55
2022/01/11 08:57:21;;;;;;;4.72;2.50;;;;;;;;;;5025141;28;20214;-55
2022/01/11 08:59:47;;;;;;;9.90;2.50;;;;;;;;;;5031170;28;20188;-55
2022/01/11 09:02:14;;;;;;;6.25;2.92;;;;;;;;;;5030447;28;20211;-55
2022/01/11 09:04:40;;;;;;;7.45;3.33;;;;;;;;;;5029851;28;20643;-55
2022/01/11 09:07:06;;;;;;;6.15;2.67;;;;;;;;;;5032335;28;20203;-54
2022/01/11 09:09:33;;;;;;;7.05;2.30;;;;;;;;;;5033446;28;20183;-54
2022/01/11 09:12:03;;;;;;;9.95;3.08;;;;;;;;;;5033285;28;20202;-55
2022/01/11 09:14:29;;;;;;;4.57;2.30;;;;;;;;;;5032558;28;20182;-55
2022/01/11 09:16:55;;;;;;;7.30;2.75;;;;;;;;;;5030412;28;20192;-55
2022/01/11 09:19:21;;;;;;;4.97;2.65;;;;;;;;;;5029061;28;20188;-55
2022/01/11 09:21:47;;;;;;;3.92;2.42;;;;;;;;;;5025967;28;20176;-55
2022/01/11 09:24:19;;;;;;;6.40;2.47;;;;;;;;;;5032602;28;20183;-55
2022/01/11 09:26:45;;;;;;;4.38;2.40;;;;;;;;;;5025657;28;20207;-55
2022/01/11 09:29:11;;;;;;;4.13;2.17;;;;;;;;;;5033116;28;20183;-55
2022/01/11 09:31:37;;;;;;;5.75;2.60;;;;;;;;;;5028176;28;20450;-55
2022/01/11 09:34:04;;;;;;;6.90;2.42;;;;;;;;;;5028976;28;20190;-55
2022/01/11 09:36:30;;;;;;;6.43;2.45;;;;;;;;;;5028980;28;20179;-55
2022/01/11 09:38:56;;;;;;;5.85;2.50;;;;;;;;;;5037149;28;20188;-54
2022/01/11 09:41:22;;;;;;;4.97;2.60;;;;;;;;;;5021461;28;20198;-54
2022/01/11 09:43:49;;;;;;;6.32;2.80;;;;;;;;;;5043473;28;20191;-55
2022/01/11 09:46:15;;;;;;;5.25;2.50;;;;;;;;;;5032322;28;20180;-55
2022/01/11 09:48:43;;;;;;;5.70;2.70;;;;;;;;;;5050225;28;20202;-55
2022/01/11 09:51:09;;;;;;;3.53;2.53;;;;;;;;;;5033489;28;20754;-54
2022/01/11 09:53:35;;;;;;;3.90;2.40;;;;;;;;;;5038119;28;20179;-54
2022/01/11 09:56:05;;;;;;;3.72;2.25;;;;;;;;;;5035189;28;20262;-55
2022/01/11 09:58:32;;;;;;;4.72;2.30;;;;;;;;;;5031051;28;20195;-55
2022/01/11 10:00:59;;;;;;;4.35;2.53;;;;;;;;;;5042692;28;20190;-55
2022/01/11 10:03:25;;;;;;;3.65;2.70;;;;;;;;;;5044715;28;20273;-55
2022/01/11 10:05:52;;;;;;;5.00;2.42;;;;;;;;;;5027793;28;20420;-54
2022/01/11 10:08:22;;;;;;;4.82;2.78;;;;;;;;;;5032950;28;20207;-55
2022/01/11 10:10:48;;;;;;;3.60;2.35;;;;;;;;;;5022511;28;20184;-55
2022/01/11 10:13:30;;;;;;;5.55;2.15;;;;;;;;;;5018344;28;20188;-55
2022/01/11 10:15:56;;;;;;;3.88;2.45;;;;;;;;;;5023031;28;20835;-55
2022/01/11 10:18:38;;;;;;;5.93;2.53;;;;;;;;;;5022491;28;20191;-55
2022/01/11 10:21:23;;;;;;;4.60;2.55;;;;;;;;;;5020113;28;20185;-55
2022/01/11 10:23:49;;;;;;;4.15;2.53;;;;;;;;;;5041203;28;20220;-54
2022/01/11 10:26:15;;;;;;;4.80;2.40;;;;;;;;;;5021790;28;20206;-54
2022/01/11 10:28:41;;;;;;;4.07;2.38;;;;;;;;;;5021034;28;20226;-55
2022/01/11 10:31:07;;;;;;;4.45;2.20;;;;;;;;;;5028364;28;20193;-55
2022/01/11 10:33:33;;;;;;;3.80;2.40;;;;;;;;;;5027033;28;20215;-55
2022/01/11 10:35:59;;;;;;;4.35;2.25;;;;;;;;;;5023511;28;20175;-55
2022/01/11 10:38:27;;;;;;;4.72;2.38;;;;;;;;;;5039393;28;20180;-55
2022/01/11 10:40:54;;;;;;;3.15;2.00;;;;;;;;;;5036020;28;20180;-55
2022/01/11 10:43:21;;;;;;;2.97;2.38;;;;;;;;;;5031139;28;20180;-54
2022/01/11 10:45:54;;;;;;;2.85;1.95;;;;;;;;;;5028160;28;20207;-54
2022/01/11 10:48:22;;;;;;;3.17;2.22;;;;;;;;;;5034891;28;20207;-54
2022/01/11 10:50:49;;;;;;;4.82;2.40;;;;;;;;;;5033720;28;20172;-54
2022/01/11 10:53:20;;;;;;;4.38;2.17;;;;;;;;;;5032209;28;20191;-54
2022/01/11 10:55:48;;;;;;;3.72;2.38;;;;;;;;;;5024925;28;20792;-54
2022/01/11 10:58:14;;;;;;;3.72;2.30;;;;;;;;;;5028086;28;20184;-54
2022/01/11 11:00:42;;;;;;;4.75;2.30;;;;;;;;;;5024135;28;20306;-54
2022/01/11 11:03:10;;;;;;;2.90;2.17;;;;;;;;;;5028069;28;20196;-54
2022/01/11 11:05:38;;;;;;;2.63;2.00;;;;;;;;;;5018602;28;20191;-54
2022/01/11 11:08:10;;;;;;;2.50;2.10;;;;;;;;;;5030101;28;20486;-55
2022/01/11 11:10:41;;;;;;;4.20;2.10;;;;;;;;;;5031154;28;20184;-55
2022/01/11 11:13:08;;;;;;;5.10;2.42;;;;;;;;;;5030924;28;20176;-55
2022/01/11 11:15:38;;;;;;;3.55;1.90;;;;;;;;;;5027811;28;20271;-55
2022/01/11 11:18:05;;;;;;;6.22;2.30;;;;;;;;;;5028223;28;20254;-55
2022/01/11 11:20:32;;;;;;;3.97;2.00;;;;;;;;;;5028701;28;20210;-56
2022/01/11 11:22:59;;;;;;;6.65;2.20;;;;;;;;;;5025469;28;20195;-55
2022/01/11 11:25:25;;;;;;;4.03;2.20;;;;;;;;;;5034200;28;20188;-55
2022/01/11 11:27:51;;;;;;;5.22;1.70;;;;;;;;;;5028546;28;20254;-54
2022/01/11 11:30:17;;;;;;;3.45;2.17;;;;;;;;;;5026369;28;20180;-54
2022/01/11 11:32:46;;;;;;;11.68;2.58;;;;;;;;;;5028968;28;20190;-54
2022/01/11 11:35:13;;;;;;;10.63;2.35;;;;;;;;;;5034383;28;20170;-54
2022/01/11 11:37:40;;;;;;;9.82;2.83;;;;;;;;;;5035871;28;20179;-54
2022/01/11 11:40:12;;;;;;;7.65;2.33;;;;;;;;;;5033932;28;20172;-54
2022/01/11 11:42:39;;;;;;;6.95;2.40;;;;;;;;;;5035928;28;20180;-54
2022/01/11 11:45:25;;;;;;;7.10;2.42;;;;;;;;;;5033210;28;20427;-54
2022/01/11 11:47:52;;;;;;;10.95;2.90;;;;;;;;;;5033840;28;20575;-54
2022/01/11 11:50:21;;;;;;;7.50;2.40;;;;;;;;;;5027099;28;20187;-54
2022/01/11 11:52:48;;;;;;;8.88;2.33;;;;;;;;;;5026433;28;20211;-54
2022/01/11 11:55:27;;;;;;;3.85;2.15;;;;;;;;;;5023239;28;20175;-54
2022/01/11 11:57:54;;;;;;;4.88;2.28;;;;;;;;;;5027202;28;20211;-54
2022/01/11 12:00:22;;;;;;;3.03;2.15;;;;;;;;;;5024526;28;20179;-54
2022/01/11 12:02:50;;;;;;;5.82;2.22;;;;;;;;;;5027017;28;20465;-54
2022/01/11 12:05:35;;;;;;;6.85;2.50;;;;;;;;;;5039421;28;20221;-54
2022/01/11 12:08:19;;;;;;;5.43;2.08;;;;;;;;;;5043332;28;20493;-54
2022/01/11 12:10:50;;;;;;;5.38;2.20;;;;;;;;;;5036108;28;20194;-54
2022/01/11 12:13:34;;;;;;;4.63;2.50;;;;;;;;;;5045816;28;20225;-54
2022/01/11 12:16:00;;;;;;;4.68;2.60;;;;;;;;;;5036185;28;20219;-54
2022/01/11 12:18:42;;;;;;;4.97;3.00;;;;;;;;;;5037578;28;20208;-54
2022/01/11 12:21:08;;;;;;;5.65;2.75;;;;;;;;;;5026231;28;20184;-54
2022/01/11 12:23:37;;;;;;;6.10;3.03;;;;;;;;;;5041551;28;20191;-54
2022/01/11 12:26:16;;;;;;;3.35;2.55;;;;;;;;;;5040484;28;20266;-54
2022/01/11 12:28:42;;;;;;;5.47;2.72;;;;;;;;;;5036297;28;20206;-54
2022/01/11 12:31:25;;;;;;;4.30;2.63;;;;;;;;;;5030145;28;20178;-55
2022/01/11 12:33:51;;;;;;;4.68;2.40;;;;;;;;;;5030596;28;20192;-55
2022/01/11 12:36:17;;;;;;;8.88;2.70;;;;;;;;;;5027999;28;20219;-55
2022/01/11 12:39:00;;;;;;;4.28;2.58;;;;;;;;;;5030334;28;20622;-55
2022/01/11 12:41:28;;;;;;;5.07;2.35;;;;;;;;;;5028062;28;20180;-55
2022/01/11 12:44:14;;;;;;;4.35;2.60;;;;;;;;;;5031864;28;20184;-55
2022/01/11 12:46:50;;;;;;;4.72;2.65;;;;;;;;;;5031468;28;20210;-55
2022/01/11 12:49:16;;;;;;;4.22;2.67;;;;;;;;;;5032698;28;20182;-54
2022/01/11 12:51:52;;;;;;;5.75;2.72;;;;;;;;;;5025836;28;20263;-54
2022/01/11 12:54:18;;;;;;;2.70;2.45;;;;;;;;;;5040179;28;20210;-54
2022/01/11 12:56:46;;;;;;;2.90;2.30;;;;;;;;;;5033200;28;20192;-55
2022/01/11 12:59:12;;;;;;;5.50;2.17;;;;;;;;;;5041646;28;20277;-54
2022/01/11 13:01:38;;;;;;;6.57;2.70;;;;;;;;;;5036827;28;20262;-55
2022/01/11 13:04:04;;;;;;;2.70;2.33;;;;;;;;;;5045663;28;20195;-55
2022/01/11 13:06:32;;;;;;;5.35;2.00;;;;;;;;;;5037369;28;20259;-55
2022/01/11 13:08:59;;;;;;;8.02;2.22;;;;;;;;;;5050269;28;20183;-55
2022/01/11 13:11:25;;;;;;;6.07;2.50;;;;;;;;;;5041392;28;20685;-54
2022/01/11 13:14:06;;;;;;;6.78;2.60;;;;;;;;;;5053557;28;20172;-54
2022/01/11 13:16:32;;;;;;;4.20;2.10;;;;;;;;;;5041515;28;20186;-54
2022/01/11 13:19:11;;;;;;;2.88;2.15;;;;;;;;;;5018634;28;20191;-54
2022/01/11 13:21:37;;;;;;;3.28;2.20;;;;;;;;;;5017290;28;20200;-55
2022/01/11 13:26:47;;;;;;;6.28;2.50;;;;;;;;;;5030127;28;20208;-54
2022/01/11 13:29:16;;;;;;;4.88;2.53;;;;;;;;;;5053690;28;20167;-54
2022/01/11 13:31:42;;;;;;;4.55;2.28;;;;;;;;;;5041875;28;20191;-55
2022/01/11 13:34:10;;;;;;;4.45;2.47;;;;;;;;;;5027920;28;20189;-54
2022/01/11 13:36:38;;;;;;;4.22;2.65;;;;;;;;;;5030038;28;20189;-54
2022/01/11 13:39:06;;;;;;;6.82;2.80;;;;;;;;;;5044384;28;20180;-54
2022/01/11 13:41:36;;;;;;;5.30;2.60;;;;;;;;;;5033305;28;20190;-54
2022/01/11 13:44:07;;;;;;;4.55;2.60;;;;;;;;;;5024030;28;20191;-54
2022/01/11 13:46:37;;;;;;;6.88;2.97;;;;;;;;;;5036860;28;20203;-54
2022/01/11 13:49:03;;;;;;;4.82;2.33;;;;;;;;;;5028096;28;20225;-54
2022/01/11 13:51:31;;;;;;;3.40;2.60;;;;;;;;;;5039705;28;20171;-54
2022/01/11 13:54:07;;;;;;;4.00;2.70;;;;;;;;;;5046280;28;20450;-54
2022/01/11 13:56:34;;;;;;;6.90;3.10;;;;;;;;;;5028871;28;23292;-54
2022/01/11 13:59:00;;;;;;;4.28;2.80;;;;;;;;;;5039878;28;20577;-54
2022/01/11 14:01:27;;;;;;;5.55;2.40;;;;;;;;;;5030141;28;20220;-54
2022/01/11 14:04:19;;;;;;;5.70;2.78;;;;;;;;;;5034452;28;20221;-54
2022/01/11 14:06:49;;;;;;;4.95;2.35;;;;;;;;;;5027127;28;20243;-54
2022/01/11 14:09:18;;;;;;;5.15;2.80;;;;;;;;;;5049598;28;20539;-54
2022/01/11 14:12:03;;;;;;;4.65;2.50;;;;;;;;;;5042452;28;20179;-54
2022/01/11 14:14:29;;;;;;;2.90;2.60;;;;;;;;;;5041941;28;20176;-54
2022/01/11 14:16:56;;;;;;;3.78;2.58;;;;;;;;;;5020151;28;20214;-54
2022/01/11 14:19:23;;;;;;;5.32;2.60;;;;;;;;;;5031328;28;20462;-54
2022/01/11 14:21:52;;;;;;;4.50;2.55;;;;;;;;;;5024854;28;20187;-55
2022/01/11 14:24:19;;;;;;;4.13;2.60;;;;;;;;;;5041931;28;20187;-55
2022/01/11 14:26:45;;;;;;;2.83;2.60;;;;;;;;;;5031277;28;20294;-55
2022/01/11 14:29:22;;;;;;;3.55;2.38;;;;;;;;;;5032849;28;20194;-55
2022/01/11 14:32:09;;;;;;;2.83;2.22;;;;;;;;;;5028059;28;20222;-55
2022/01/11 14:34:35;;;;;;;4.25;2.40;;;;;;;;;;5042364;28;20178;-55
2022/01/11 14:37:21;;;;;;;4.25;2.75;;;;;;;;;;5036700;28;20575;-55
2022/01/11 14:39:47;;;;;;;3.03;2.35;;;;;;;;;;5026314;28;20574;-55
2022/01/11 14:42:21;;;;;;;3.00;2.30;;;;;;;;;;5033737;28;20187;-55
2022/01/11 14:44:57;;;;;;;6.15;2.65;;;;;;;;;;5034178;28;20222;-55
2022/01/11 14:47:23;;;;;;;4.97;3.17;;;;;;;;;;5022431;28;20211;-55
2022/01/11 14:49:49;;;;;;;3.58;2.72;;;;;;;;;;5030597;28;20483;-55
2022/01/11 14:52:20;;;;;;;2.90;2.60;;;;;;;;;;5024325;28;20191;-55
2022/01/11 14:54:57;;;;;;;5.05;2.88;;;;;;;;;;5032697;28;20574;-54